createdAt,value
2023-03-24T00:00:21.666Z,9.60
2023-03-24T00:05:24.415Z,9.40
2023-03-24T00:10:30.516Z,9.00
2023-03-24T00:15:34.022Z,8.90
2023-03-24T00:20:36.639Z,8.70
2023-03-24T00:25:40.266Z,8.50
2023-03-24T00:30:43.106Z,8.40
2023-03-24T00:35:45.875Z,8.40
2023-03-24T00:40:48.915Z,8.40
2023-03-24T00:45:57.666Z,8.20
2023-03-24T00:51:05.362Z,8.20
2023-03-24T00:56:09.197Z,8.50
2023-03-24T01:01:11.780Z,8.50
2023-03-24T01:06:14.361Z,8.40
2023-03-24T01:11:18.005Z,8.50
2023-03-24T01:16:25.810Z,8.50
2023-03-24T01:21:28.580Z,8.50
2023-03-24T01:26:31.272Z,8.60
2023-03-24T01:31:33.950Z,8.80
2023-03-24T01:36:36.462Z,8.80
2023-03-24T01:41:41.243Z,8.70
2023-03-24T01:46:45.226Z,8.60
2023-03-24T01:51:53.349Z,8.60
2023-03-24T01:57:03.871Z,8.70
2023-03-24T02:02:09.911Z,8.80
2023-03-24T02:07:46.177Z,8.90
2023-03-24T02:12:48.865Z,9.00
2023-03-24T02:18:33.240Z,8.90
2023-03-24T02:23:55.758Z,9.00
2023-03-24T02:29:33.028Z,8.90
2023-03-24T02:34:36.131Z,8.80
2023-03-24T02:39:50.600Z,8.70
2023-03-24T02:45:21.443Z,8.90
2023-03-24T02:50:29.790Z,9.10
2023-03-24T02:55:39.637Z,9.20
2023-03-24T03:00:47.718Z,9.30
2023-03-24T03:06:25.935Z,9.10
2023-03-24T03:11:28.596Z,9.00
2023-03-24T03:16:38.698Z,9.00
2023-03-24T03:21:44.234Z,9.20
2023-03-24T03:26:49.158Z,9.30
2023-03-24T03:32:07.754Z,9.30
2023-03-24T03:37:31.840Z,9.40
2023-03-24T03:42:34.520Z,9.30
2023-03-24T03:47:37.487Z,9.40
2023-03-24T03:52:41.731Z,9.50
2023-03-24T03:57:44.887Z,9.40
2023-03-24T04:03:37.261Z,9.40
2023-03-24T04:08:56.866Z,9.30
2023-03-24T04:14:30.425Z,9.20
2023-03-24T04:20:12.822Z,9.00
2023-03-24T04:25:29.394Z,9.10
2023-03-24T04:30:50.400Z,9.00
2023-03-24T04:36:18.605Z,9.10
2023-03-24T04:41:45.640Z,9.00
2023-03-24T04:46:58.223Z,8.90
2023-03-24T04:52:00.988Z,9.10
2023-03-24T04:57:07.918Z,9.20
2023-03-24T05:02:16.722Z,9.30
2023-03-24T05:07:31.830Z,9.40
2023-03-24T05:12:37.678Z,9.50
2023-03-24T05:18:15.656Z,9.60
2023-03-24T05:23:18.326Z,9.70
2023-03-24T05:28:22.772Z,9.80
2023-03-24T05:33:27.471Z,10.00
2023-03-24T05:38:31.017Z,10.10
2023-03-24T05:43:34.077Z,10.20
2023-03-24T05:48:47.001Z,10.50
2023-03-24T05:53:54.883Z,10.70
2023-03-24T05:59:07.137Z,10.80
2023-03-24T06:04:31.361Z,10.90
2023-03-24T06:09:42.676Z,11.00
2023-03-24T06:14:48.456Z,11.20
2023-03-24T06:19:51.903Z,11.20
2023-03-24T06:25:28.824Z,11.20
2023-03-24T06:30:46.981Z,11.30
2023-03-24T06:35:55.194Z,11.50
2023-03-24T06:41:01.758Z,11.70
2023-03-24T06:46:06.212Z,11.70
2023-03-24T06:51:10.090Z,12.00
2023-03-24T06:56:17.389Z,12.60
2023-03-24T07:01:25.399Z,13.00
2023-03-24T07:06:29.780Z,13.50
2023-03-24T07:11:38.785Z,13.60
2023-03-24T07:16:41.879Z,13.90
2023-03-24T07:22:10.535Z,14.30
2023-03-24T07:27:41.692Z,14.60
2023-03-24T07:32:45.665Z,14.70
2023-03-24T07:37:49.414Z,15.00
2023-03-24T07:42:52.912Z,15.20
2023-03-24T07:48:17.597Z,15.30
2023-03-24T07:53:20.346Z,15.40
2023-03-24T07:58:23.582Z,15.70
2023-03-24T08:03:49.349Z,15.60
2023-03-24T08:08:52.078Z,15.40
2023-03-24T08:13:54.673Z,15.60
2023-03-24T08:19:00.231Z,15.70
2023-03-24T08:24:02.813Z,15.60
2023-03-24T08:40:23.259Z,15.40
2023-03-24T08:45:28.635Z,15.30
2023-03-24T08:50:36.210Z,15.40
2023-03-24T08:55:41.833Z,15.90
2023-03-24T09:00:45.753Z,16.20
2023-03-24T09:05:48.974Z,16.40
2023-03-24T09:10:51.818Z,16.40
2023-03-24T09:15:58.641Z,16.40
2023-03-24T09:21:01.931Z,16.60
2023-03-24T09:26:05.578Z,16.70
2023-03-24T09:31:08.220Z,16.80
2023-03-24T09:36:11.701Z,16.80
2023-03-24T09:41:28.268Z,16.90
2023-03-24T09:46:47.249Z,16.80
2023-03-24T09:51:53.299Z,16.80
2023-03-24T09:56:57.649Z,16.90
2023-03-24T10:02:00.455Z,17.10
2023-03-24T10:07:39.812Z,17.10
2023-03-24T10:12:51.952Z,17.00
2023-03-24T10:18:13.829Z,16.90
2023-03-24T10:23:25.388Z,16.90
2023-03-24T10:28:38.924Z,16.80
2023-03-24T10:33:46.072Z,16.90
2023-03-24T10:38:49.151Z,17.20
2023-03-24T10:43:54.610Z,17.50
2023-03-24T10:49:19.888Z,17.40
2023-03-24T10:54:27.062Z,17.50
2023-03-24T10:59:47.442Z,17.50
2023-03-24T11:05:13.034Z,17.50
2023-03-24T11:10:25.149Z,17.40
2023-03-24T11:15:55.612Z,17.40
2023-03-24T11:21:06.977Z,17.40
2023-03-24T11:26:24.077Z,17.40
2023-03-24T11:31:38.399Z,17.50
2023-03-24T11:37:05.332Z,17.40
2023-03-24T11:42:14.588Z,17.30
2023-03-24T11:47:21.485Z,17.10
2023-03-24T11:52:28.843Z,17.20
2023-03-24T11:57:58.642Z,17.20
2023-03-24T12:03:07.426Z,17.40
2023-03-24T12:08:38.866Z,17.60
2023-03-24T12:13:46.079Z,17.90
2023-03-24T12:19:07.201Z,18.10
2023-03-24T12:24:31.974Z,18.10
2023-03-24T12:30:02.317Z,18.30
2023-03-24T12:35:11.482Z,18.40
2023-03-24T12:40:38.874Z,18.60
2023-03-24T12:45:45.507Z,18.80
2023-03-24T12:50:51.017Z,19.00
2023-03-24T12:56:14.255Z,19.10
2023-03-24T13:01:37.444Z,19.10
2023-03-24T13:06:58.676Z,19.20
2023-03-24T13:12:03.363Z,19.30
2023-03-24T13:17:13.392Z,19.40
2023-03-24T13:22:20.947Z,19.40
2023-03-24T13:27:33.991Z,19.40
2023-03-24T13:32:50.530Z,19.20
2023-03-24T13:38:11.153Z,19.30
2023-03-24T13:43:20.495Z,19.20
2023-03-24T13:48:29.090Z,19.20
2023-03-24T13:53:40.001Z,19.00
2023-03-24T13:59:10.631Z,18.90
2023-03-24T14:04:19.098Z,19.00
2023-03-24T14:09:26.058Z,19.10
2023-03-24T14:14:29.527Z,19.10
2023-03-24T14:19:53.329Z,18.80
2023-03-24T14:25:01.541Z,18.70
2023-03-24T14:30:28.439Z,18.80
2023-03-24T14:35:32.262Z,19.00
2023-03-24T14:40:38.867Z,19.00
2023-03-24T14:45:53.761Z,19.00
2023-03-24T14:51:02.042Z,18.80
2023-03-24T14:56:13.055Z,18.90
2023-03-24T15:01:17.392Z,19.10
2023-03-24T15:06:23.420Z,19.20
2023-03-24T15:11:31.539Z,19.20
2023-03-24T15:16:36.706Z,19.20
2023-03-24T15:21:47.903Z,19.00
2023-03-24T15:26:54.033Z,19.00
2023-03-24T15:31:56.517Z,18.90
2023-03-24T15:37:03.959Z,18.80
2023-03-24T15:42:17.269Z,18.80
2023-03-24T15:47:37.721Z,18.30
2023-03-24T15:52:40.214Z,18.30
2023-03-24T15:57:42.750Z,18.50
2023-03-24T16:02:52.327Z,18.40
2023-03-24T16:07:59.626Z,18.30
2023-03-24T16:13:19.585Z,18.20
2023-03-24T16:18:27.074Z,17.90
2023-03-24T16:23:31.329Z,16.70
2023-03-24T16:28:34.395Z,16.60
2023-03-24T16:33:37.007Z,17.20
2023-03-24T16:38:39.786Z,17.50
2023-03-24T16:43:43.319Z,17.70
2023-03-24T16:48:45.946Z,17.80
2023-03-24T16:53:49.685Z,18.00
2023-03-24T16:58:53.466Z,18.00
2023-03-24T17:04:12.555Z,18.00
2023-03-24T17:09:15.480Z,17.90
2023-03-24T17:14:18.073Z,17.80
2023-03-24T17:19:22.818Z,17.80
2023-03-24T17:24:25.679Z,17.90
2023-03-24T17:29:28.244Z,17.80
2023-03-24T17:34:30.803Z,17.70
2023-03-24T17:39:33.407Z,17.70
2023-03-24T17:44:36.146Z,17.60
2023-03-24T17:49:38.603Z,17.50
2023-03-24T17:54:41.332Z,17.10
2023-03-24T17:59:44.238Z,16.40
2023-03-24T18:04:47.431Z,16.00
2023-03-24T18:09:51.317Z,15.20
2023-03-24T18:19:58.332Z,13.00
2023-03-24T18:25:04.033Z,12.80
2023-03-24T18:30:09.621Z,12.50
2023-03-24T18:35:16.329Z,12.50
2023-03-24T18:40:19.259Z,13.20
2023-03-24T18:45:21.805Z,13.90
2023-03-24T18:50:24.276Z,14.10
2023-03-24T18:55:26.948Z,14.30
2023-03-24T19:00:29.638Z,14.40
2023-03-24T19:05:33.382Z,14.30
2023-03-24T19:10:37.116Z,14.20
2023-03-24T19:15:40.467Z,14.20
2023-03-24T19:20:42.985Z,14.10
2023-03-24T19:25:46.310Z,13.80
2023-03-24T19:30:49.040Z,13.80
2023-03-24T19:35:52.300Z,13.60
2023-03-24T19:40:55.742Z,12.80
2023-03-24T19:45:58.582Z,12.10
2023-03-24T19:51:01.537Z,12.20
2023-03-24T19:56:04.620Z,12.30
2023-03-24T20:01:07.222Z,12.60
2023-03-24T20:06:10.178Z,12.50
2023-03-24T20:11:12.854Z,12.60
2023-03-24T20:16:15.565Z,12.80
2023-03-24T20:21:22.693Z,12.60
2023-03-24T20:26:25.352Z,12.60
2023-03-24T20:31:28.917Z,12.80
2023-03-24T20:36:32.391Z,13.10
2023-03-24T20:41:35.008Z,11.80
2023-03-24T20:46:37.624Z,11.00
2023-03-24T20:51:40.804Z,10.50
2023-03-24T20:56:43.427Z,11.00
2023-03-24T21:01:48.544Z,11.60
2023-03-24T21:06:51.040Z,11.90
2023-03-24T21:11:54.215Z,12.20
2023-03-24T21:16:56.842Z,12.10
2023-03-24T21:21:59.510Z,12.50
2023-03-24T21:27:02.325Z,12.50
2023-03-24T21:32:04.965Z,12.20
2023-03-24T21:37:09.658Z,12.20
2023-03-24T21:42:15.463Z,12.60
2023-03-24T21:47:18.584Z,12.60
2023-03-24T21:52:21.112Z,13.10
2023-03-24T21:57:24.876Z,13.50
2023-03-24T22:02:27.975Z,13.50
2023-03-24T22:07:37.679Z,13.60
2023-03-24T22:12:41.729Z,13.40
2023-03-24T22:17:44.550Z,11.40
2023-03-24T22:22:47.463Z,11.60
2023-03-24T22:27:52.607Z,11.10
2023-03-24T22:32:55.513Z,10.80
2023-03-24T22:37:58.008Z,10.50
2023-03-24T22:43:00.505Z,10.50
2023-03-24T22:48:03.141Z,11.00
2023-03-24T22:53:05.856Z,11.40
2023-03-24T22:58:08.628Z,11.60
2023-03-24T23:03:12.106Z,11.90
2023-03-24T23:08:16.072Z,11.90
2023-03-24T23:13:18.647Z,11.10
2023-03-24T23:18:21.197Z,11.00
2023-03-24T23:23:23.738Z,10.50
2023-03-24T23:28:26.240Z,10.00
2023-03-24T23:33:29.087Z,10.20
2023-03-24T23:38:33.640Z,9.90
2023-03-24T23:43:36.640Z,10.00
2023-03-24T23:48:39.196Z,10.30
2023-03-24T23:53:41.855Z,10.20
2023-03-24T23:58:44.421Z,11.00
